Alexandria, South Dakota
Current Conditions -  °F | °C
As of 5:53 AM on Saturday 20 Dec 2014 (Local Time) from KMHE Reporting Station
Moderate Fog Moderate Fog  
Wind Chill: 18°   Ceiling: 200
Heat Index: 27°   Visibility: 0.5mi
Dew Point: 27°   Wind: 9mph
Humidity: 100%   Direction: 190°S
Pressure: 30.05"   Gusts: NA
Location:  43.65°N, 97.78°W
Report Text: KMHE 201153Z AUTO 19008KT 1/2SM FZFG VV002 M03/M03 A3005 RMK AO2 SLP194 60000 I1002 I6006 T10281028 11017 21033 53001
Loading
Personal Weather Stations






























Interactive Weather Map New forecast layout! Learn more

10-Day Weather Forecast

Advertisements
Track Severe Weather on mobile